sensor_id;sensor_type;location;lat;lon;timestamp;temperature;humidity
18041;DHT22;9145;48.588;9.250;2023-10-19T00:00:31;11.60;99.90
18041;DHT22;9145;48.588;9.250;2023-10-19T00:03:02;11.60;99.90
18041;DHT22;9145;48.588;9.250;2023-10-19T00:05:28;11.60;99.90
18041;DHT22;9145;48.588;9.250;2023-10-19T00:07:59;11.70;99.90
18041;DHT22;9145;48.588;9.250;2023-10-19T00:10:26;11.70;99.90
18041;DHT22;9145;48.588;9.250;2023-10-19T00:12:58;11.70;99.90
18041;DHT22;9145;48.588;9.250;2023-10-19T00:15:26;11.60;99.90
18041;DHT22;9145;48.588;9.250;2023-10-19T00:17:56;11.70;99.90
18041;DHT22;9145;48.588;9.250;2023-10-19T00:20:22;11.70;99.90
18041;DHT22;9145;48.588;9.250;2023-10-19T00:23:03;11.70;99.90
18041;DHT22;9145;48.588;9.250;2023-10-19T00:25:31;11.70;99.90
18041;DHT22;9145;48.588;9.250;2023-10-19T00:28:00;11.70;99.90
18041;DHT22;9145;48.588;9.250;2023-10-19T00:30:29;11.70;99.90
18041;DHT22;9145;48.588;9.250;2023-10-19T00:33:00;11.70;99.90
18041;DHT22;9145;48.588;9.250;2023-10-19T00:35:29;11.70;99.90
18041;DHT22;9145;48.588;9.250;2023-10-19T00:38:03;11.70;99.90
18041;DHT22;9145;48.588;9.250;2023-10-19T00:40:53;11.70;99.90
18041;DHT22;9145;48.588;9.250;2023-10-19T00:43:28;11.70;99.90
18041;DHT22;9145;48.588;9.250;2023-10-19T00:45:59;11.80;99.90
18041;DHT22;9145;48.588;9.250;2023-10-19T00:48:29;11.80;99.90
18041;DHT22;9145;48.588;9.250;2023-10-19T00:50:58;11.80;99.90
18041;DHT22;9145;48.588;9.250;2023-10-19T00:53:37;11.90;99.90
18041;DHT22;9145;48.588;9.250;2023-10-19T00:56:07;11.80;99.90
18041;DHT22;9145;48.588;9.250;2023-10-19T00:58:35;11.80;99.90
18041;DHT22;9145;48.588;9.250;2023-10-19T01:01:03;11.80;99.90
18041;DHT22;9145;48.588;9.250;2023-10-19T01:03:33;11.70;99.90
18041;DHT22;9145;48.588;9.250;2023-10-19T01:06:04;11.70;99.90
18041;DHT22;9145;48.588;9.250;2023-10-19T01:08:39;11.60;99.90
18041;DHT22;9145;48.588;9.250;2023-10-19T01:11:10;11.70;99.90
18041;DHT22;9145;48.588;9.250;2023-10-19T01:13:40;11.70;99.90
18041;DHT22;9145;48.588;9.250;2023-10-19T01:16:12;11.70;99.90
18041;DHT22;9145;48.588;9.250;2023-10-19T01:18:41;11.80;99.90
18041;DHT22;9145;48.588;9.250;2023-10-19T01:21:09;11.80;99.90
18041;DHT22;9145;48.588;9.250;2023-10-19T01:23:38;11.90;99.90
18041;DHT22;9145;48.588;9.250;2023-10-19T01:26:06;11.90;99.90
18041;DHT22;9145;48.588;9.250;2023-10-19T01:28:35;11.90;99.90
18041;DHT22;9145;48.588;9.250;2023-10-19T01:31:14;12.00;99.90
18041;DHT22;9145;48.588;9.250;2023-10-19T01:33:42;12.00;99.90
18041;DHT22;9145;48.588;9.250;2023-10-19T01:36:09;12.00;99.90
18041;DHT22;9145;48.588;9.250;2023-10-19T01:38:42;11.90;99.90
18041;DHT22;9145;48.588;9.250;2023-10-19T01:41:09;11.90;99.90
18041;DHT22;9145;48.588;9.250;2023-10-19T01:43:41;11.90;99.90
18041;DHT22;9145;48.588;9.250;2023-10-19T01:46:07;11.90;99.90
18041;DHT22;9145;48.588;9.250;2023-10-19T01:48:38;11.90;99.90
18041;DHT22;9145;48.588;9.250;2023-10-19T01:51:07;11.90;99.90
18041;DHT22;9145;48.588;9.250;2023-10-19T01:53:37;12.00;99.90
18041;DHT22;9145;48.588;9.250;2023-10-19T01:56:06;12.00;99.90
18041;DHT22;9145;48.588;9.250;2023-10-19T01:58:36;12.00;99.90
18041;DHT22;9145;48.588;9.250;2023-10-19T02:01:02;12.00;99.90
18041;DHT22;9145;48.588;9.250;2023-10-19T02:03:34;12.00;99.90
18041;DHT22;9145;48.588;9.250;2023-10-19T02:06:01;12.00;99.90
18041;DHT22;9145;48.588;9.250;2023-10-19T02:08:36;12.00;99.90
18041;DHT22;9145;48.588;9.250;2023-10-19T02:11:06;12.00;99.90
18041;DHT22;9145;48.588;9.250;2023-10-19T02:13:44;12.00;99.90
18041;DHT22;9145;48.588;9.250;2023-10-19T02:16:12;12.00;99.90
18041;DHT22;9145;48.588;9.250;2023-10-19T02:18:41;12.10;99.90
18041;DHT22;9145;48.588;9.250;2023-10-19T02:21:07;12.10;99.90
18041;DHT22;9145;48.588;9.250;2023-10-19T02:23:38;12.20;99.90
18041;DHT22;9145;48.588;9.250;2023-10-19T02:26:06;12.20;99.90
18041;DHT22;9145;48.588;9.250;2023-10-19T02:28:33;12.30;99.90
18041;DHT22;9145;48.588;9.250;2023-10-19T02:31:03;12.30;99.90
18041;DHT22;9145;48.588;9.250;2023-10-19T02:33:38;12.40;99.90
18041;DHT22;9145;48.588;9.250;2023-10-19T02:36:05;12.40;99.90
18041;DHT22;9145;48.588;9.250;2023-10-19T02:38:39;12.40;99.90
18041;DHT22;9145;48.588;9.250;2023-10-19T02:41:08;12.40;99.90
18041;DHT22;9145;48.588;9.250;2023-10-19T02:43:36;12.40;99.90
18041;DHT22;9145;48.588;9.250;2023-10-19T02:46:03;12.30;99.90
18041;DHT22;9145;48.588;9.250;2023-10-19T02:48:29;12.30;99.90
18041;DHT22;9145;48.588;9.250;2023-10-19T02:50:56;12.20;99.90
18041;DHT22;9145;48.588;9.250;2023-10-19T02:53:32;12.10;99.90
18041;DHT22;9145;48.588;9.250;2023-10-19T02:55:59;12.00;99.90
18041;DHT22;9145;48.588;9.250;2023-10-19T02:58:28;12.10;99.90
18041;DHT22;9145;48.588;9.250;2023-10-19T03:00:55;12.00;99.90
18041;DHT22;9145;48.588;9.250;2023-10-19T03:03:20;12.00;99.90
18041;DHT22;9145;48.588;9.250;2023-10-19T03:05:47;12.00;99.90
18041;DHT22;9145;48.588;9.250;2023-10-19T03:08:13;12.00;99.90
18041;DHT22;9145;48.588;9.250;2023-10-19T03:10:41;11.90;99.90
18041;DHT22;9145;48.588;9.250;2023-10-19T03:13:08;11.90;99.90
18041;DHT22;9145;48.588;9.250;2023-10-19T03:15:36;11.90;99.90
18041;DHT22;9145;48.588;9.250;2023-10-19T03:18:05;11.90;99.90
18041;DHT22;9145;48.588;9.250;2023-10-19T03:20:32;11.90;99.90
18041;DHT22;9145;48.588;9.250;2023-10-19T03:22:59;11.90;99.90
18041;DHT22;9145;48.588;9.250;2023-10-19T03:25:27;11.90;99.90
18041;DHT22;9145;48.588;9.250;2023-10-19T03:28:11;11.90;99.90
18041;DHT22;9145;48.588;9.250;2023-10-19T03:30:42;12.00;99.90
18041;DHT22;9145;48.588;9.250;2023-10-19T03:33:08;12.10;99.90
18041;DHT22;9145;48.588;9.250;2023-10-19T03:35:36;12.10;99.90
18041;DHT22;9145;48.588;9.250;2023-10-19T03:38:03;12.10;99.90
18041;DHT22;9145;48.588;9.250;2023-10-19T03:40:34;12.10;99.90
18041;DHT22;9145;48.588;9.250;2023-10-19T03:43:04;12.10;99.90
18041;DHT22;9145;48.588;9.250;2023-10-19T03:45:44;12.10;99.90
18041;DHT22;9145;48.588;9.250;2023-10-19T03:48:18;12.20;99.90
18041;DHT22;9145;48.588;9.250;2023-10-19T03:50:50;12.10;99.90
18041;DHT22;9145;48.588;9.250;2023-10-19T03:53:18;12.10;99.90
18041;DHT22;9145;48.588;9.250;2023-10-19T03:55:46;12.20;99.90
18041;DHT22;9145;48.588;9.250;2023-10-19T03:58:15;12.20;99.90
18041;DHT22;9145;48.588;9.250;2023-10-19T04:00:43;12.10;99.90
18041;DHT22;9145;48.588;9.250;2023-10-19T04:03:11;12.20;99.90
18041;DHT22;9145;48.588;9.250;2023-10-19T04:05:38;12.10;99.90
18041;DHT22;9145;48.588;9.250;2023-10-19T04:08:06;12.10;99.90
18041;DHT22;9145;48.588;9.250;2023-10-19T04:10:38;12.10;99.90
18041;DHT22;9145;48.588;9.250;2023-10-19T04:13:05;12.10;99.90
18041;DHT22;9145;48.588;9.250;2023-10-19T04:15:35;12.10;99.90
18041;DHT22;9145;48.588;9.250;2023-10-19T04:18:04;11.90;99.90
18041;DHT22;9145;48.588;9.250;2023-10-19T04:20:36;11.80;99.90
18041;DHT22;9145;48.588;9.250;2023-10-19T04:23:20;11.80;99.90
18041;DHT22;9145;48.588;9.250;2023-10-19T04:25:48;11.90;99.90
18041;DHT22;9145;48.588;9.250;2023-10-19T04:28:15;11.80;99.90
18041;DHT22;9145;48.588;9.250;2023-10-19T04:30:45;11.70;99.90
18041;DHT22;9145;48.588;9.250;2023-10-19T04:33:15;11.60;99.90
18041;DHT22;9145;48.588;9.250;2023-10-19T04:35:44;11.70;99.90
18041;DHT22;9145;48.588;9.250;2023-10-19T04:38:11;11.70;99.90
18041;DHT22;9145;48.588;9.250;2023-10-19T04:40:39;11.70;99.90
18041;DHT22;9145;48.588;9.250;2023-10-19T04:43:06;11.70;99.90
18041;DHT22;9145;48.588;9.250;2023-10-19T04:45:32;11.70;99.90
18041;DHT22;9145;48.588;9.250;2023-10-19T04:47:59;11.60;99.90
18041;DHT22;9145;48.588;9.250;2023-10-19T04:50:29;11.70;99.90
18041;DHT22;9145;48.588;9.250;2023-10-19T04:52:57;11.70;99.90
18041;DHT22;9145;48.588;9.250;2023-10-19T04:55:24;11.60;99.90
18041;DHT22;9145;48.588;9.250;2023-10-19T04:57:51;11.50;99.90
18041;DHT22;9145;48.588;9.250;2023-10-19T05:00:19;11.50;99.90
18041;DHT22;9145;48.588;9.250;2023-10-19T05:02:47;11.40;99.90
18041;DHT22;9145;48.588;9.250;2023-10-19T05:05:14;11.40;99.90
18041;DHT22;9145;48.588;9.250;2023-10-19T05:07:44;11.40;99.90
18041;DHT22;9145;48.588;9.250;2023-10-19T05:10:11;11.40;99.90
18041;DHT22;9145;48.588;9.250;2023-10-19T05:12:38;11.40;99.90
18041;DHT22;9145;48.588;9.250;2023-10-19T05:15:05;11.40;99.90
18041;DHT22;9145;48.588;9.250;2023-10-19T05:17:32;11.30;99.90
18041;DHT22;9145;48.588;9.250;2023-10-19T05:19:59;11.30;99.90
18041;DHT22;9145;48.588;9.250;2023-10-19T05:22:26;11.30;99.90
18041;DHT22;9145;48.588;9.250;2023-10-19T05:24:56;11.30;99.90
18041;DHT22;9145;48.588;9.250;2023-10-19T05:27:23;11.20;99.90
18041;DHT22;9145;48.588;9.250;2023-10-19T05:29:50;11.30;99.90
18041;DHT22;9145;48.588;9.250;2023-10-19T05:32:17;11.20;99.90
18041;DHT22;9145;48.588;9.250;2023-10-19T05:34:44;11.20;99.90
18041;DHT22;9145;48.588;9.250;2023-10-19T05:37:11;11.30;99.90
18041;DHT22;9145;48.588;9.250;2023-10-19T05:39:38;11.20;99.90
18041;DHT22;9145;48.588;9.250;2023-10-19T05:42:06;11.30;99.90
18041;DHT22;9145;48.588;9.250;2023-10-19T05:44:33;11.40;99.90
18041;DHT22;9145;48.588;9.250;2023-10-19T05:47:00;11.50;99.90
18041;DHT22;9145;48.588;9.250;2023-10-19T05:49:27;11.50;99.90
18041;DHT22;9145;48.588;9.250;2023-10-19T05:51:54;11.60;99.90
18041;DHT22;9145;48.588;9.250;2023-10-19T05:54:21;11.70;99.90
18041;DHT22;9145;48.588;9.250;2023-10-19T05:56:49;11.80;99.90
18041;DHT22;9145;48.588;9.250;2023-10-19T05:59:18;11.80;99.90
18041;DHT22;9145;48.588;9.250;2023-10-19T06:01:45;11.80;99.90
18041;DHT22;9145;48.588;9.250;2023-10-19T06:04:12;11.90;99.90
18041;DHT22;9145;48.588;9.250;2023-10-19T06:06:40;11.90;99.90
18041;DHT22;9145;48.588;9.250;2023-10-19T06:09:07;11.90;99.90
18041;DHT22;9145;48.588;9.250;2023-10-19T06:11:35;11.90;99.90
18041;DHT22;9145;48.588;9.250;2023-10-19T06:14:03;11.90;99.90
18041;DHT22;9145;48.588;9.250;2023-10-19T06:16:33;11.80;99.90
18041;DHT22;9145;48.588;9.250;2023-10-19T06:19:00;11.80;99.90
18041;DHT22;9145;48.588;9.250;2023-10-19T06:21:28;11.80;99.90
18041;DHT22;9145;48.588;9.250;2023-10-19T06:23:55;11.80;99.90
18041;DHT22;9145;48.588;9.250;2023-10-19T06:26:23;11.80;99.90
18041;DHT22;9145;48.588;9.250;2023-10-19T06:28:49;11.90;99.90
18041;DHT22;9145;48.588;9.250;2023-10-19T06:31:16;11.90;99.90
18041;DHT22;9145;48.588;9.250;2023-10-19T06:33:46;11.90;99.90
18041;DHT22;9145;48.588;9.250;2023-10-19T06:36:12;12.00;99.90
18041;DHT22;9145;48.588;9.250;2023-10-19T06:38:39;12.00;99.90
18041;DHT22;9145;48.588;9.250;2023-10-19T06:41:11;11.90;99.90
18041;DHT22;9145;48.588;9.250;2023-10-19T06:43:38;12.00;99.90
18041;DHT22;9145;48.588;9.250;2023-10-19T06:46:05;12.00;99.90
18041;DHT22;9145;48.588;9.250;2023-10-19T06:48:32;12.10;99.90
18041;DHT22;9145;48.588;9.250;2023-10-19T06:51:00;12.10;99.90
18041;DHT22;9145;48.588;9.250;2023-10-19T06:53:27;12.10;99.90
18041;DHT22;9145;48.588;9.250;2023-10-19T06:55:54;12.10;99.90
18041;DHT22;9145;48.588;9.250;2023-10-19T06:58:21;12.20;99.90
18041;DHT22;9145;48.588;9.250;2023-10-19T07:00:52;12.20;99.90
18041;DHT22;9145;48.588;9.250;2023-10-19T07:03:25;12.10;99.90
18041;DHT22;9145;48.588;9.250;2023-10-19T07:05:53;12.10;99.90
18041;DHT22;9145;48.588;9.250;2023-10-19T07:08:22;12.10;99.90
18041;DHT22;9145;48.588;9.250;2023-10-19T07:10:52;12.10;99.90
18041;DHT22;9145;48.588;9.250;2023-10-19T07:13:19;12.10;99.90
18041;DHT22;9145;48.588;9.250;2023-10-19T07:15:47;12.10;99.90
18041;DHT22;9145;48.588;9.250;2023-10-19T07:18:14;12.20;99.90
18041;DHT22;9145;48.588;9.250;2023-10-19T07:20:41;12.20;99.90
18041;DHT22;9145;48.588;9.250;2023-10-19T07:23:09;12.30;99.90
18041;DHT22;9145;48.588;9.250;2023-10-19T07:25:47;12.30;99.90
18041;DHT22;9145;48.588;9.250;2023-10-19T07:28:18;12.40;99.90
18041;DHT22;9145;48.588;9.250;2023-10-19T07:30:47;12.40;99.90
18041;DHT22;9145;48.588;9.250;2023-10-19T07:33:15;12.40;99.90
18041;DHT22;9145;48.588;9.250;2023-10-19T07:35:44;12.30;99.90
18041;DHT22;9145;48.588;9.250;2023-10-19T07:38:12;12.30;99.90
18041;DHT22;9145;48.588;9.250;2023-10-19T07:40:40;12.30;99.90
18041;DHT22;9145;48.588;9.250;2023-10-19T07:43:08;12.40;99.90
18041;DHT22;9145;48.588;9.250;2023-10-19T07:45:35;12.50;99.90
18041;DHT22;9145;48.588;9.250;2023-10-19T07:48:03;12.60;99.90
18041;DHT22;9145;48.588;9.250;2023-10-19T07:50:32;12.70;99.90
18041;DHT22;9145;48.588;9.250;2023-10-19T07:52:59;12.70;99.90
18041;DHT22;9145;48.588;9.250;2023-10-19T07:55:26;12.70;99.90
18041;DHT22;9145;48.588;9.250;2023-10-19T07:57:53;12.80;99.90
18041;DHT22;9145;48.588;9.250;2023-10-19T08:00:22;12.80;99.90
18041;DHT22;9145;48.588;9.250;2023-10-19T08:02:49;12.80;99.90
18041;DHT22;9145;48.588;9.250;2023-10-19T08:05:17;12.90;99.90
18041;DHT22;9145;48.588;9.250;2023-10-19T08:07:45;13.00;99.90
18041;DHT22;9145;48.588;9.250;2023-10-19T08:10:14;13.10;99.90
18041;DHT22;9145;48.588;9.250;2023-10-19T08:12:41;13.20;99.90
18041;DHT22;9145;48.588;9.250;2023-10-19T08:15:10;13.30;99.90
18041;DHT22;9145;48.588;9.250;2023-10-19T08:17:39;13.40;99.90
18041;DHT22;9145;48.588;9.250;2023-10-19T08:20:07;13.50;99.90
18041;DHT22;9145;48.588;9.250;2023-10-19T08:22:36;13.50;99.90
18041;DHT22;9145;48.588;9.250;2023-10-19T08:25:03;13.50;99.90
18041;DHT22;9145;48.588;9.250;2023-10-19T08:27:37;13.50;99.90
18041;DHT22;9145;48.588;9.250;2023-10-19T08:30:06;13.50;99.90
18041;DHT22;9145;48.588;9.250;2023-10-19T08:32:34;13.60;99.90
18041;DHT22;9145;48.588;9.250;2023-10-19T08:35:02;13.60;99.90
18041;DHT22;9145;48.588;9.250;2023-10-19T08:37:31;13.70;99.90
18041;DHT22;9145;48.588;9.250;2023-10-19T08:39:59;13.80;99.90
18041;DHT22;9145;48.588;9.250;2023-10-19T08:42:26;13.90;99.90
18041;DHT22;9145;48.588;9.250;2023-10-19T08:44:56;14.00;99.90
18041;DHT22;9145;48.588;9.250;2023-10-19T08:47:24;14.10;99.90
18041;DHT22;9145;48.588;9.250;2023-10-19T08:49:52;14.20;99.90
18041;DHT22;9145;48.588;9.250;2023-10-19T08:52:21;14.30;99.90
18041;DHT22;9145;48.588;9.250;2023-10-19T08:54:49;14.30;99.90
18041;DHT22;9145;48.588;9.250;2023-10-19T08:57:17;14.40;99.90
18041;DHT22;9145;48.588;9.250;2023-10-19T08:59:45;14.40;99.90
18041;DHT22;9145;48.588;9.250;2023-10-19T09:02:14;14.30;99.90
18041;DHT22;9145;48.588;9.250;2023-10-19T09:04:42;14.30;99.90
18041;DHT22;9145;48.588;9.250;2023-10-19T09:07:09;14.30;99.90
18041;DHT22;9145;48.588;9.250;2023-10-19T09:09:38;14.30;99.90
18041;DHT22;9145;48.588;9.250;2023-10-19T09:12:07;14.40;99.90
18041;DHT22;9145;48.588;9.250;2023-10-19T09:14:35;14.50;99.90
18041;DHT22;9145;48.588;9.250;2023-10-19T09:17:07;14.50;99.90
18041;DHT22;9145;48.588;9.250;2023-10-19T09:19:41;14.50;99.90
18041;DHT22;9145;48.588;9.250;2023-10-19T09:22:09;14.50;99.90
18041;DHT22;9145;48.588;9.250;2023-10-19T09:24:45;14.50;99.90
18041;DHT22;9145;48.588;9.250;2023-10-19T09:27:13;14.70;99.90
18041;DHT22;9145;48.588;9.250;2023-10-19T09:29:39;14.70;99.90
18041;DHT22;9145;48.588;9.250;2023-10-19T09:32:07;14.70;99.90
18041;DHT22;9145;48.588;9.250;2023-10-19T09:34:35;14.70;99.90
18041;DHT22;9145;48.588;9.250;2023-10-19T09:37:03;14.70;99.90
18041;DHT22;9145;48.588;9.250;2023-10-19T09:39:31;14.80;99.90
18041;DHT22;9145;48.588;9.250;2023-10-19T09:42:05;14.90;99.90
18041;DHT22;9145;48.588;9.250;2023-10-19T09:44:40;14.80;99.90
18041;DHT22;9145;48.588;9.250;2023-10-19T09:47:10;14.90;99.90
18041;DHT22;9145;48.588;9.250;2023-10-19T09:49:39;14.80;99.90
18041;DHT22;9145;48.588;9.250;2023-10-19T09:52:07;14.80;99.90
18041;DHT22;9145;48.588;9.250;2023-10-19T09:54:43;14.80;99.90
18041;DHT22;9145;48.588;9.250;2023-10-19T09:57:18;14.80;99.90
18041;DHT22;9145;48.588;9.250;2023-10-19T09:59:51;14.80;99.90
18041;DHT22;9145;48.588;9.250;2023-10-19T10:02:21;14.80;99.90
18041;DHT22;9145;48.588;9.250;2023-10-19T10:04:48;14.80;99.90
18041;DHT22;9145;48.588;9.250;2023-10-19T10:07:15;14.80;99.90
18041;DHT22;9145;48.588;9.250;2023-10-19T10:09:43;14.80;99.90
18041;DHT22;9145;48.588;9.250;2023-10-19T10:12:19;14.80;99.90
18041;DHT22;9145;48.588;9.250;2023-10-19T10:14:58;14.80;99.90
18041;DHT22;9145;48.588;9.250;2023-10-19T10:17:27;14.80;99.90
18041;DHT22;9145;48.588;9.250;2023-10-19T10:19:55;14.90;99.90
18041;DHT22;9145;48.588;9.250;2023-10-19T10:22:24;15.00;99.90
18041;DHT22;9145;48.588;9.250;2023-10-19T10:24:54;15.10;99.90
18041;DHT22;9145;48.588;9.250;2023-10-19T10:27:23;15.10;99.90
18041;DHT22;9145;48.588;9.250;2023-10-19T10:29:54;15.20;99.90
18041;DHT22;9145;48.588;9.250;2023-10-19T10:35:55;15.20;99.90
18041;DHT22;9145;48.588;9.250;2023-10-19T10:38:22;15.30;99.90
18041;DHT22;9145;48.588;9.250;2023-10-19T10:40:50;15.30;99.90
18041;DHT22;9145;48.588;9.250;2023-10-19T10:43:18;15.40;99.90
18041;DHT22;9145;48.588;9.250;2023-10-19T10:45:47;15.40;99.90
18041;DHT22;9145;48.588;9.250;2023-10-19T10:48:14;15.40;99.90
18041;DHT22;9145;48.588;9.250;2023-10-19T10:50:41;15.30;99.90
18041;DHT22;9145;48.588;9.250;2023-10-19T10:53:10;15.40;99.90
18041;DHT22;9145;48.588;9.250;2023-10-19T10:55:38;15.40;99.90
18041;DHT22;9145;48.588;9.250;2023-10-19T10:58:04;15.40;99.90
18041;DHT22;9145;48.588;9.250;2023-10-19T11:00:33;15.40;99.90
18041;DHT22;9145;48.588;9.250;2023-10-19T11:03:03;15.40;99.90
18041;DHT22;9145;48.588;9.250;2023-10-19T11:05:33;15.40;99.90
18041;DHT22;9145;48.588;9.250;2023-10-19T11:08:06;15.40;99.90
18041;DHT22;9145;48.588;9.250;2023-10-19T11:10:33;15.30;99.90
18041;DHT22;9145;48.588;9.250;2023-10-19T11:13:01;15.30;99.90
18041;DHT22;9145;48.588;9.250;2023-10-19T11:15:28;15.20;99.90
18041;DHT22;9145;48.588;9.250;2023-10-19T11:17:56;15.30;99.90
18041;DHT22;9145;48.588;9.250;2023-10-19T11:20:24;15.20;99.90
18041;DHT22;9145;48.588;9.250;2023-10-19T11:22:54;15.20;99.90
18041;DHT22;9145;48.588;9.250;2023-10-19T11:25:23;15.20;99.90
18041;DHT22;9145;48.588;9.250;2023-10-19T11:27:53;15.20;99.90
18041;DHT22;9145;48.588;9.250;2023-10-19T11:30:25;15.30;99.90
18041;DHT22;9145;48.588;9.250;2023-10-19T11:32:52;15.30;99.90
18041;DHT22;9145;48.588;9.250;2023-10-19T11:35:24;15.30;99.90
18041;DHT22;9145;48.588;9.250;2023-10-19T11:37:55;15.40;99.90
18041;DHT22;9145;48.588;9.250;2023-10-19T11:40:23;15.40;99.90
18041;DHT22;9145;48.588;9.250;2023-10-19T11:42:51;15.50;99.90
18041;DHT22;9145;48.588;9.250;2023-10-19T11:45:18;15.50;99.90
18041;DHT22;9145;48.588;9.250;2023-10-19T11:47:45;15.60;99.90
18041;DHT22;9145;48.588;9.250;2023-10-19T11:50:12;15.60;99.90
18041;DHT22;9145;48.588;9.250;2023-10-19T11:52:42;15.70;99.90
18041;DHT22;9145;48.588;9.250;2023-10-19T11:55:09;15.70;99.90
18041;DHT22;9145;48.588;9.250;2023-10-19T11:57:38;15.70;99.90
18041;DHT22;9145;48.588;9.250;2023-10-19T12:00:06;15.70;99.90
18041;DHT22;9145;48.588;9.250;2023-10-19T12:02:35;15.70;99.90
18041;DHT22;9145;48.588;9.250;2023-10-19T12:05:04;15.70;99.90
18041;DHT22;9145;48.588;9.250;2023-10-19T12:07:35;15.70;99.90
18041;DHT22;9145;48.588;9.250;2023-10-19T12:10:04;15.70;99.90
18041;DHT22;9145;48.588;9.250;2023-10-19T12:12:31;15.70;99.90
18041;DHT22;9145;48.588;9.250;2023-10-19T12:14:58;15.70;99.90
18041;DHT22;9145;48.588;9.250;2023-10-19T12:17:25;15.70;99.90
18041;DHT22;9145;48.588;9.250;2023-10-19T12:19:53;15.80;99.90
18041;DHT22;9145;48.588;9.250;2023-10-19T12:22:21;15.80;99.90
18041;DHT22;9145;48.588;9.250;2023-10-19T12:24:47;15.80;99.90
18041;DHT22;9145;48.588;9.250;2023-10-19T12:27:16;15.70;99.90
18041;DHT22;9145;48.588;9.250;2023-10-19T12:29:43;15.70;99.90
18041;DHT22;9145;48.588;9.250;2023-10-19T12:32:10;15.70;99.90
18041;DHT22;9145;48.588;9.250;2023-10-19T12:34:40;15.70;99.90
18041;DHT22;9145;48.588;9.250;2023-10-19T12:37:07;15.70;99.90
18041;DHT22;9145;48.588;9.250;2023-10-19T12:39:35;15.70;99.90
18041;DHT22;9145;48.588;9.250;2023-10-19T12:42:08;15.60;99.90
18041;DHT22;9145;48.588;9.250;2023-10-19T12:44:36;15.70;99.90
18041;DHT22;9145;48.588;9.250;2023-10-19T12:47:07;15.80;99.90
18041;DHT22;9145;48.588;9.250;2023-10-19T12:49:36;15.80;99.90
18041;DHT22;9145;48.588;9.250;2023-10-19T12:52:03;15.80;99.90
18041;DHT22;9145;48.588;9.250;2023-10-19T12:54:32;15.90;99.90
18041;DHT22;9145;48.588;9.250;2023-10-19T12:57:00;15.80;99.90
18041;DHT22;9145;48.588;9.250;2023-10-19T12:59:29;15.90;99.90
18041;DHT22;9145;48.588;9.250;2023-10-19T13:01:57;15.90;99.90
18041;DHT22;9145;48.588;9.250;2023-10-19T13:04:24;15.80;99.90
18041;DHT22;9145;48.588;9.250;2023-10-19T13:06:51;15.80;99.90
18041;DHT22;9145;48.588;9.250;2023-10-19T13:09:23;15.80;99.90
18041;DHT22;9145;48.588;9.250;2023-10-19T13:11:56;16.00;99.90
18041;DHT22;9145;48.588;9.250;2023-10-19T13:14:23;16.10;99.90
18041;DHT22;9145;48.588;9.250;2023-10-19T13:16:50;16.20;99.90
18041;DHT22;9145;48.588;9.250;2023-10-19T13:19:19;16.20;99.90
18041;DHT22;9145;48.588;9.250;2023-10-19T13:21:49;16.30;99.90
18041;DHT22;9145;48.588;9.250;2023-10-19T13:24:17;16.20;99.90
18041;DHT22;9145;48.588;9.250;2023-10-19T13:26:46;16.20;99.90
18041;DHT22;9145;48.588;9.250;2023-10-19T13:29:12;16.20;99.90
18041;DHT22;9145;48.588;9.250;2023-10-19T13:31:40;16.20;99.90
18041;DHT22;9145;48.588;9.250;2023-10-19T13:34:10;16.30;99.90
18041;DHT22;9145;48.588;9.250;2023-10-19T13:36:40;16.30;99.90
18041;DHT22;9145;48.588;9.250;2023-10-19T13:39:06;16.30;99.90
18041;DHT22;9145;48.588;9.250;2023-10-19T13:41:38;16.20;99.90
18041;DHT22;9145;48.588;9.250;2023-10-19T13:44:05;16.20;99.90
18041;DHT22;9145;48.588;9.250;2023-10-19T13:46:32;16.10;99.90
18041;DHT22;9145;48.588;9.250;2023-10-19T13:48:59;16.10;99.90
18041;DHT22;9145;48.588;9.250;2023-10-19T13:51:29;16.10;99.90
18041;DHT22;9145;48.588;9.250;2023-10-19T13:53:58;16.10;99.90
18041;DHT22;9145;48.588;9.250;2023-10-19T13:56:25;16.20;99.90
18041;DHT22;9145;48.588;9.250;2023-10-19T13:58:52;16.20;99.90
18041;DHT22;9145;48.588;9.250;2023-10-19T14:01:20;16.20;99.90
18041;DHT22;9145;48.588;9.250;2023-10-19T14:03:51;16.20;99.90
18041;DHT22;9145;48.588;9.250;2023-10-19T14:06:20;16.20;99.90
18041;DHT22;9145;48.588;9.250;2023-10-19T14:08:47;16.20;99.90
18041;DHT22;9145;48.588;9.250;2023-10-19T14:11:15;16.30;99.90
18041;DHT22;9145;48.588;9.250;2023-10-19T14:13:42;16.30;99.90
18041;DHT22;9145;48.588;9.250;2023-10-19T14:16:10;16.30;99.90
18041;DHT22;9145;48.588;9.250;2023-10-19T14:18:37;16.30;99.90
18041;DHT22;9145;48.588;9.250;2023-10-19T14:21:11;16.30;99.90
18041;DHT22;9145;48.588;9.250;2023-10-19T14:23:39;16.30;99.90
18041;DHT22;9145;48.588;9.250;2023-10-19T14:26:06;16.30;99.90
18041;DHT22;9145;48.588;9.250;2023-10-19T14:28:35;16.30;99.90
18041;DHT22;9145;48.588;9.250;2023-10-19T14:31:03;16.40;99.90
18041;DHT22;9145;48.588;9.250;2023-10-19T14:33:33;16.40;99.90
18041;DHT22;9145;48.588;9.250;2023-10-19T14:36:01;16.30;99.90
18041;DHT22;9145;48.588;9.250;2023-10-19T14:38:28;16.20;99.90
18041;DHT22;9145;48.588;9.250;2023-10-19T14:40:55;16.20;99.90
18041;DHT22;9145;48.588;9.250;2023-10-19T14:43:23;16.20;99.90
18041;DHT22;9145;48.588;9.250;2023-10-19T14:45:52;16.20;99.90
18041;DHT22;9145;48.588;9.250;2023-10-19T14:48:19;16.20;99.90
18041;DHT22;9145;48.588;9.250;2023-10-19T14:50:46;16.20;99.90
18041;DHT22;9145;48.588;9.250;2023-10-19T14:53:15;16.20;99.90
18041;DHT22;9145;48.588;9.250;2023-10-19T14:55:43;16.20;99.90
18041;DHT22;9145;48.588;9.250;2023-10-19T14:58:11;16.20;99.90
18041;DHT22;9145;48.588;9.250;2023-10-19T15:00:38;16.20;99.90
18041;DHT22;9145;48.588;9.250;2023-10-19T15:03:11;16.20;99.90
18041;DHT22;9145;48.588;9.250;2023-10-19T15:05:39;16.30;99.90
18041;DHT22;9145;48.588;9.250;2023-10-19T15:08:07;16.30;99.90
18041;DHT22;9145;48.588;9.250;2023-10-19T15:10:39;16.30;99.90
18041;DHT22;9145;48.588;9.250;2023-10-19T15:13:06;16.30;99.90
18041;DHT22;9145;48.588;9.250;2023-10-19T15:15:33;16.30;99.90
18041;DHT22;9145;48.588;9.250;2023-10-19T15:18:01;16.40;99.90
18041;DHT22;9145;48.588;9.250;2023-10-19T15:20:30;16.40;99.90
18041;DHT22;9145;48.588;9.250;2023-10-19T15:22:58;16.50;99.90
18041;DHT22;9145;48.588;9.250;2023-10-19T15:25:25;16.50;99.90
18041;DHT22;9145;48.588;9.250;2023-10-19T15:27:53;16.60;99.90
18041;DHT22;9145;48.588;9.250;2023-10-19T15:30:21;16.60;99.90
18041;DHT22;9145;48.588;9.250;2023-10-19T15:32:49;16.60;99.90
18041;DHT22;9145;48.588;9.250;2023-10-19T15:35:17;16.60;99.90
18041;DHT22;9145;48.588;9.250;2023-10-19T15:37:49;16.50;99.90
18041;DHT22;9145;48.588;9.250;2023-10-19T15:40:19;16.50;99.90
18041;DHT22;9145;48.588;9.250;2023-10-19T15:42:46;16.50;99.90
18041;DHT22;9145;48.588;9.250;2023-10-19T15:45:14;16.50;99.90
18041;DHT22;9145;48.588;9.250;2023-10-19T15:47:44;16.50;99.90
18041;DHT22;9145;48.588;9.250;2023-10-19T15:50:12;16.50;99.90
18041;DHT22;9145;48.588;9.250;2023-10-19T15:52:39;16.50;99.90
18041;DHT22;9145;48.588;9.250;2023-10-19T15:55:09;16.40;99.90
18041;DHT22;9145;48.588;9.250;2023-10-19T15:57:37;16.40;99.90